メインページ
METAR-TAF:

METAR-TAF

空港 :

Vineyard Haven, マサチューセッツ州, アメリカ合衆国

緯度: 41-23-32N, 経度: 070-37-00W, 海抜: 20m

現時点の気象観測

当レポートは57分前の09:53(UTC)に作成
北西の風 10kt
気温 1°C
湿度 55%
気圧 1010 hPa
視程: 16.1km
高度6000ftの曇り

METAR: KMVY 230953Z AUTO 31010KT 10SM OVC060 01/M07 A2982 RMK AO2 SLP097 T00111067

時間: 05:50 (10:50 UTC)


TAF: 見つかりません

4,000以上の空港の気象観測と天気予報(METAR報とTAF報)

利用可能な観測所は地図上に黄色い丸と赤い丸で示す。

丸の上にカーソルを重ねると観測所名を参照できる。

次にクリックすると気象観測と天気予報を参照できる。

マップの切り替え:黒色「×」印の緑ボタンをクリックして拡大、「-」印の緑ボタンをクリックして縮小、緑色の三角印をクリックして隣りの地図に切り替え


METAR-TAF: